KGSP

Greenville Spartanburg International Airport

Greer, South Carolina, USA
METAR KGSP 141730Z 03012G20KT 1 1/2SM -RA BR BKN005 OVC010 06/06 A3011 RMK AO2 P0006 T00610056
Observed Flight Rules
Dec-14 @ 17:30 UTC (30 minutes ago) Instrument Flight Rules
Wind Visibility Clouds Conditions
30° at 12 knots
 Gusting to 20 knots
1 1/2 miles
  • Broken at 500' AGL
  • Overcast at 1,000' AGL
  • Light Rain
  • Mist
Temperatures Readings Precipitation
Current 6°C / 43°F
Dewpoint 6°C / 43°F
Humidity 100%
Altimeter 30.11" Hg
Pressure 1020 hPa
Elevation 287
Current Rain 0.06
METAR KGSP 141730Z 03012G20KT 1 1/2SM -RA BR BKN005 OVC010 06/06 A3011 RMK AO2 P0006 T00610056
Observed Flight Rules
Dec-14 @ 17:30 UTC
(30 minutes ago)
IFR
Wind Visibility
30° at 12 knots
 Gusting to 20 knots
1 1/2 miles
Clouds
  • Broken at 500' AGL
  • Overcast at 1,000' AGL
Conditions
  • Light Rain
  • Mist
Temperature Dewpoint
6°C / 43°F 6°C / 43°F
Humidity Altimeter Pressure
100% 30.11" Hg 1020 hPa
Current Rain
0.06